Time;durP1;ratioP1;P1;durP2;ratioP2;P2;SDS_P1;SDS_P2;PMS_P1;PMS_P2;Temp;Humidity;BMP_temperature;BMP_pressure;BME280_temperature;BME280_humidity;BME280_pressure;Samples;Min_cycle;Max_cycle;Signal;HPM_P1;HPM_P2
2021/12/26 00:00:56;;;;;;;6.13;3.85;;;;;;;;;;7391290;19;20478;-75
2021/12/26 00:03:23;;;;;;;4.90;3.25;;;;;;;;;;7394903;19;20010;-76
2021/12/26 00:05:48;;;;;;;5.47;3.03;;;;;;;;;;7395222;19;20014;-76
2021/12/26 00:08:14;;;;;;;4.78;3.42;;;;;;;;;;7390371;19;20002;-76
2021/12/26 00:10:39;;;;;;;5.32;3.53;;;;;;;;;;7391735;19;20072;-77
2021/12/26 00:13:05;;;;;;;6.47;3.22;;;;;;;;;;7390810;19;20024;-75
2021/12/26 00:15:30;;;;;;;5.20;3.42;;;;;;;;;;7390436;19;20005;-76
2021/12/26 00:17:56;;;;;;;5.45;3.55;;;;;;;;;;7394966;19;19994;-76
2021/12/26 00:20:22;;;;;;;5.25;3.35;;;;;;;;;;7389759;19;19994;-76
2021/12/26 00:22:48;;;;;;;7.05;4.03;;;;;;;;;;7390504;19;20019;-75
2021/12/26 00:25:13;;;;;;;5.65;3.80;;;;;;;;;;7389305;19;20332;-76
2021/12/26 00:27:40;;;;;;;6.25;3.80;;;;;;;;;;7390889;19;20473;-76
2021/12/26 00:30:12;;;;;;;5.45;3.65;;;;;;;;;;7389672;19;19995;-76
2021/12/26 00:32:38;;;;;;;5.68;3.50;;;;;;;;;;7390474;19;19994;-76
2021/12/26 00:35:06;;;;;;;6.72;3.95;;;;;;;;;;7389549;19;19999;-76
2021/12/26 00:37:31;;;;;;;5.85;4.22;;;;;;;;;;7390318;19;20005;-76
2021/12/26 00:39:57;;;;;;;5.07;3.53;;;;;;;;;;7389071;19;20054;-76
2021/12/26 00:42:22;;;;;;;4.65;3.42;;;;;;;;;;7389724;19;20006;-75
2021/12/26 00:44:47;;;;;;;6.90;4.05;;;;;;;;;;7389891;19;20715;-75
2021/12/26 00:47:13;;;;;;;5.95;3.63;;;;;;;;;;7389236;19;20070;-76
2021/12/26 00:49:39;;;;;;;13.70;6.90;;;;;;;;;;7386932;19;20094;-76
2021/12/26 00:52:06;;;;;;;7.45;4.85;;;;;;;;;;7392807;19;19994;-77
2021/12/26 00:54:32;;;;;;;7.32;4.10;;;;;;;;;;7392883;19;20075;-76
2021/12/26 00:56:58;;;;;;;6.05;4.10;;;;;;;;;;7387958;19;20003;-75
2021/12/26 00:59:25;;;;;;;6.82;4.20;;;;;;;;;;7388723;19;20002;-76
2021/12/26 01:01:52;;;;;;;6.10;3.92;;;;;;;;;;7389486;19;20396;-75
2021/12/26 01:04:18;;;;;;;7.85;3.67;;;;;;;;;;7389315;19;20430;-75
2021/12/26 01:06:44;;;;;;;5.97;3.83;;;;;;;;;;7387707;19;20002;-76
2021/12/26 01:09:12;;;;;;;6.50;4.32;;;;;;;;;;7387835;19;19998;-76
2021/12/26 01:11:41;;;;;;;7.20;4.20;;;;;;;;;;7389200;19;20528;-76
2021/12/26 01:14:10;;;;;;;7.15;4.40;;;;;;;;;;7388829;19;20003;-76
2021/12/26 01:16:36;;;;;;;6.20;3.85;;;;;;;;;;7387772;19;20352;-76
2021/12/26 01:19:11;;;;;;;5.78;3.65;;;;;;;;;;7388195;19;19999;-77
2021/12/26 01:21:36;;;;;;;7.25;4.10;;;;;;;;;;7389191;19;19995;-76
2021/12/26 01:24:06;;;;;;;9.52;3.60;;;;;;;;;;7388002;19;20005;-76
2021/12/26 01:26:32;;;;;;;7.45;4.32;;;;;;;;;;7387329;19;20006;-76
2021/12/26 01:28:58;;;;;;;5.43;3.45;;;;;;;;;;7387859;19;20002;-76
2021/12/26 01:31:24;;;;;;;6.72;4.20;;;;;;;;;;7387707;19;20003;-75
2021/12/26 01:33:54;;;;;;;5.25;3.55;;;;;;;;;;7388372;19;20058;-76
2021/12/26 01:36:19;;;;;;;5.50;3.90;;;;;;;;;;7387166;19;19995;-75
2021/12/26 01:38:45;;;;;;;6.90;4.30;;;;;;;;;;7387026;19;20407;-76
2021/12/26 01:41:11;;;;;;;7.15;4.00;;;;;;;;;;7389116;19;20002;-76
2021/12/26 01:43:39;;;;;;;5.15;3.88;;;;;;;;;;7392163;19;20003;-75
2021/12/26 01:46:05;;;;;;;6.80;4.00;;;;;;;;;;7387293;19;20007;-76
2021/12/26 01:48:30;;;;;;;7.10;4.22;;;;;;;;;;7387246;19;20007;-76
2021/12/26 01:50:56;;;;;;;5.70;3.85;;;;;;;;;;7386799;19;20027;-76
2021/12/26 01:53:24;;;;;;;6.97;3.88;;;;;;;;;;7387726;19;20003;-76
2021/12/26 01:55:51;;;;;;;6.57;3.95;;;;;;;;;;7386801;19;20006;-76
2021/12/26 01:58:21;;;;;;;5.60;4.13;;;;;;;;;;7387368;19;20055;-75
2021/12/26 02:00:52;;;;;;;6.38;3.53;;;;;;;;;;7388068;19;20007;-76
2021/12/26 02:03:17;;;;;;;5.32;3.47;;;;;;;;;;7394800;19;20013;-76
2021/12/26 02:05:43;;;;;;;4.90;3.50;;;;;;;;;;7394460;19;20003;-76
2021/12/26 02:08:08;;;;;;;5.43;3.40;;;;;;;;;;7393799;19;20058;-76
2021/12/26 02:10:34;;;;;;;4.65;3.50;;;;;;;;;;7394612;19;20002;-75
2021/12/26 02:12:59;;;;;;;5.22;3.58;;;;;;;;;;7394686;19;20364;-76
2021/12/26 02:15:25;;;;;;;5.10;3.80;;;;;;;;;;7392965;19;20003;-75
2021/12/26 02:17:50;;;;;;;7.28;4.32;;;;;;;;;;7394540;19;20423;-75
2021/12/26 02:20:34;;;;;;;8.68;3.90;;;;;;;;;;7396760;19;20485;-76
2021/12/26 02:23:07;;;;;;;4.20;3.03;;;;;;;;;;7395842;19;20006;-76
2021/12/26 02:28:18;;;;;;;5.30;3.67;;;;;;;;;;7393953;19;20005;-76
2021/12/26 02:30:44;;;;;;;5.45;4.00;;;;;;;;;;7394545;19;19998;-76
2021/12/26 02:33:11;;;;;;;6.05;3.97;;;;;;;;;;7397532;19;20489;-76
2021/12/26 02:35:38;;;;;;;4.72;3.22;;;;;;;;;;7397634;19;20021;-76
2021/12/26 02:38:05;;;;;;;4.30;3.50;;;;;;;;;;7393358;19;20037;-76
2021/12/26 02:40:30;;;;;;;4.97;3.50;;;;;;;;;;7393994;19;20434;-76
2021/12/26 02:42:56;;;;;;;3.55;2.80;;;;;;;;;;7393912;19;20012;-76
2021/12/26 02:45:21;;;;;;;4.10;2.92;;;;;;;;;;7393158;19;20010;-76
2021/12/26 02:47:49;;;;;;;4.20;3.15;;;;;;;;;;7393596;19;20355;-76
2021/12/26 02:50:21;;;;;;;3.40;2.75;;;;;;;;;;7393127;19;19995;-75
2021/12/26 02:52:47;;;;;;;3.92;2.70;;;;;;;;;;7393751;19;19999;-75
2021/12/26 02:55:15;;;;;;;3.42;2.55;;;;;;;;;;7392330;19;20010;-76
2021/12/26 02:57:40;;;;;;;3.53;2.75;;;;;;;;;;7393666;19;20009;-76
2021/12/26 03:00:07;;;;;;;3.90;2.78;;;;;;;;;;7392864;19;20070;-76
2021/12/26 03:02:33;;;;;;;3.13;2.47;;;;;;;;;;7393455;19;19999;-76
2021/12/26 03:04:58;;;;;;;4.07;2.67;;;;;;;;;;7393337;19;20065;-76
2021/12/26 03:07:23;;;;;;;3.47;2.88;;;;;;;;;;7393740;19;20007;-75
2021/12/26 03:09:57;;;;;;;3.22;2.70;;;;;;;;;;7392098;19;20398;-75
2021/12/26 03:12:22;;;;;;;3.20;2.72;;;;;;;;;;7392123;19;20007;-76
2021/12/26 03:14:48;;;;;;;3.90;2.88;;;;;;;;;;7392292;19;20013;-75
2021/12/26 03:17:14;;;;;;;4.18;2.90;;;;;;;;;;7390653;19;20290;-75
2021/12/26 03:19:40;;;;;;;4.45;3.20;;;;;;;;;;7392365;19;19998;-75
2021/12/26 03:22:06;;;;;;;3.63;2.80;;;;;;;;;;7395508;19;20359;-76
2021/12/26 03:24:32;;;;;;;3.70;2.97;;;;;;;;;;7396393;19;19999;-76
2021/12/26 03:27:03;;;;;;;3.53;2.90;;;;;;;;;;7390828;19;20001;-76
2021/12/26 03:29:28;;;;;;;4.68;2.70;;;;;;;;;;7390288;19;20010;-76
2021/12/26 03:31:53;;;;;;;4.43;3.20;;;;;;;;;;7392343;19;20056;-76
2021/12/26 03:34:19;;;;;;;3.50;2.67;;;;;;;;;;7392324;19;20003;-76
2021/12/26 03:36:46;;;;;;;3.53;2.80;;;;;;;;;;7390594;19;19998;-76
2021/12/26 03:39:11;;;;;;;4.00;2.80;;;;;;;;;;7391022;19;19998;-76
2021/12/26 03:41:37;;;;;;;3.10;2.50;;;;;;;;;;7392318;19;20017;-76
2021/12/26 03:44:02;;;;;;;3.45;2.65;;;;;;;;;;7392310;19;20110;-75
2021/12/26 03:46:28;;;;;;;3.88;2.92;;;;;;;;;;7390809;19;20010;-76
2021/12/26 03:48:53;;;;;;;3.63;2.78;;;;;;;;;;7389558;19;20003;-76
2021/12/26 03:51:20;;;;;;;3.95;2.72;;;;;;;;;;7392071;19;19999;-76
2021/12/26 03:53:45;;;;;;;4.20;3.05;;;;;;;;;;7390933;19;20010;-76
2021/12/26 03:56:11;;;;;;;3.20;2.40;;;;;;;;;;7390364;19;20010;-76
2021/12/26 03:58:38;;;;;;;3.70;2.92;;;;;;;;;;7390818;19;20054;-76
2021/12/26 04:01:03;;;;;;;3.83;2.92;;;;;;;;;;7391314;19;20027;-76
2021/12/26 04:03:28;;;;;;;2.85;2.30;;;;;;;;;;7391143;19;20007;-76
2021/12/26 04:05:54;;;;;;;4.78;3.42;;;;;;;;;;7390319;19;20027;-77
2021/12/26 04:08:19;;;;;;;3.75;3.13;;;;;;;;;;7390003;19;20003;-76
2021/12/26 04:10:44;;;;;;;3.75;3.13;;;;;;;;;;7391781;19;20009;-76
2021/12/26 04:13:10;;;;;;;5.47;2.90;;;;;;;;;;7394007;19;19999;-76
2021/12/26 04:15:35;;;;;;;4.28;2.88;;;;;;;;;;7390456;19;20451;-76
2021/12/26 04:18:01;;;;;;;4.25;2.97;;;;;;;;;;7390445;19;19994;-76
2021/12/26 04:20:28;;;;;;;4.88;3.13;;;;;;;;;;7390598;19;19991;-76
2021/12/26 04:22:54;;;;;;;4.28;3.30;;;;;;;;;;7388865;19;20386;-76
2021/12/26 04:25:20;;;;;;;4.78;3.28;;;;;;;;;;7388990;19;20010;-76
2021/12/26 04:27:46;;;;;;;7.35;3.33;;;;;;;;;;7390434;19;19994;-76
2021/12/26 04:30:14;;;;;;;4.75;3.13;;;;;;;;;;7389579;19;20467;-76
2021/12/26 04:32:39;;;;;;;4.70;3.28;;;;;;;;;;7390702;19;19994;-76
2021/12/26 04:35:05;;;;;;;3.85;2.90;;;;;;;;;;7389798;19;20292;-76
2021/12/26 04:37:31;;;;;;;4.10;2.88;;;;;;;;;;7390899;19;19998;-75
2021/12/26 04:39:56;;;;;;;3.80;3.00;;;;;;;;;;7389000;19;20030;-76
2021/12/26 04:42:22;;;;;;;4.25;3.05;;;;;;;;;;7390398;19;20501;-76
2021/12/26 04:44:49;;;;;;;3.90;3.03;;;;;;;;;;7389947;19;20031;-75
2021/12/26 04:47:15;;;;;;;4.65;3.28;;;;;;;;;;7389981;19;20036;-76
2021/12/26 04:49:40;;;;;;;4.57;3.53;;;;;;;;;;7389284;19;19999;-76
2021/12/26 04:52:06;;;;;;;4.13;3.00;;;;;;;;;;7390104;19;20016;-76
2021/12/26 04:54:31;;;;;;;5.57;3.13;;;;;;;;;;7389119;19;20062;-76
2021/12/26 04:56:56;;;;;;;4.20;3.00;;;;;;;;;;7387894;19;20035;-76
2021/12/26 04:59:22;;;;;;;3.03;2.72;;;;;;;;;;7388551;19;20002;-76
2021/12/26 05:01:47;;;;;;;3.72;3.03;;;;;;;;;;7392264;19;20006;-76
2021/12/26 05:04:12;;;;;;;3.42;2.85;;;;;;;;;;7392849;19;20011;-77
2021/12/26 05:06:38;;;;;;;3.85;3.08;;;;;;;;;;7388109;19;20002;-76
2021/12/26 05:09:04;;;;;;;4.35;2.97;;;;;;;;;;7388119;19;19994;-76
2021/12/26 05:11:30;;;;;;;4.72;3.22;;;;;;;;;;7387926;19;20002;-76
2021/12/26 05:13:55;;;;;;;5.00;3.40;;;;;;;;;;7388855;19;20005;-76
2021/12/26 05:16:20;;;;;;;3.20;2.88;;;;;;;;;;7388361;19;19994;-75
2021/12/26 05:18:46;;;;;;;3.75;2.88;;;;;;;;;;7388216;19;20498;-76
2021/12/26 05:21:11;;;;;;;5.45;3.20;;;;;;;;;;7389252;19;19999;-76
2021/12/26 05:23:36;;;;;;;4.88;3.17;;;;;;;;;;7388409;19;19999;-76
2021/12/26 05:26:02;;;;;;;3.47;2.83;;;;;;;;;;7387889;19;20050;-76
2021/12/26 05:28:30;;;;;;;3.47;2.63;;;;;;;;;;7386387;19;20018;-76
2021/12/26 05:30:55;;;;;;;4.68;2.90;;;;;;;;;;7389023;19;20075;-76
2021/12/26 05:33:21;;;;;;;4.15;3.00;;;;;;;;;;7388600;19;20371;-76
2021/12/26 05:35:46;;;;;;;3.80;3.22;;;;;;;;;;7388229;19;20046;-75
2021/12/26 05:38:11;;;;;;;3.50;2.88;;;;;;;;;;7394820;19;20086;-76
2021/12/26 05:40:37;;;;;;;5.22;3.38;;;;;;;;;;7396233;19;20506;-76
2021/12/26 05:43:02;;;;;;;3.60;2.72;;;;;;;;;;7395458;19;19995;-76
2021/12/26 05:45:28;;;;;;;4.50;3.13;;;;;;;;;;7395006;19;20023;-77
2021/12/26 05:47:53;;;;;;;3.97;2.88;;;;;;;;;;7395685;19;20022;-76
2021/12/26 05:50:20;;;;;;;3.78;2.95;;;;;;;;;;7395578;19;20014;-76
2021/12/26 05:52:45;;;;;;;3.83;2.95;;;;;;;;;;7399905;19;20001;-75
2021/12/26 05:55:12;;;;;;;3.70;3.03;;;;;;;;;;7394516;19;19994;-76
2021/12/26 05:57:37;;;;;;;5.82;3.38;;;;;;;;;;7395325;19;20019;-76
2021/12/26 06:00:08;;;;;;;5.60;3.25;;;;;;;;;;7394710;19;19991;-76
2021/12/26 06:02:33;;;;;;;4.10;2.88;;;;;;;;;;7395644;19;19999;-76
2021/12/26 06:04:58;;;;;;;4.45;2.95;;;;;;;;;;7394858;19;20058;-76
2021/12/26 06:07:24;;;;;;;5.38;3.50;;;;;;;;;;7395081;19;20091;-76
2021/12/26 06:09:49;;;;;;;5.97;3.63;;;;;;;;;;7393852;19;19991;-76
2021/12/26 06:12:16;;;;;;;4.53;3.20;;;;;;;;;;7395344;19;20019;-76
2021/12/26 06:14:41;;;;;;;5.10;3.28;;;;;;;;;;7394752;19;20002;-76
2021/12/26 06:17:06;;;;;;;6.15;3.42;;;;;;;;;;7392488;19;20054;-76
2021/12/26 06:19:32;;;;;;;4.70;3.45;;;;;;;;;;7395720;19;20106;-76
2021/12/26 06:21:57;;;;;;;4.72;3.03;;;;;;;;;;7394627;19;19998;-76
2021/12/26 06:24:22;;;;;;;4.22;3.00;;;;;;;;;;7393898;19;20328;-75
2021/12/26 06:26:48;;;;;;;4.78;3.25;;;;;;;;;;7392499;19;20002;-76
2021/12/26 06:29:13;;;;;;;7.80;3.97;;;;;;;;;;7392047;19;20482;-76
2021/12/26 06:31:39;;;;;;;5.13;3.13;;;;;;;;;;7394706;19;20457;-76
2021/12/26 06:34:05;;;;;;;5.18;3.22;;;;;;;;;;7394554;19;20343;-75
2021/12/26 06:36:30;;;;;;;5.15;3.35;;;;;;;;;;7390520;19;20003;-76
2021/12/26 06:38:55;;;;;;;11.52;5.85;;;;;;;;;;7392758;19;20016;-75
2021/12/26 06:41:22;;;;;;;8.45;4.88;;;;;;;;;;7396744;19;20009;-76
2021/12/26 06:43:47;;;;;;;4.93;3.60;;;;;;;;;;7398260;19;20005;-76
2021/12/26 06:46:15;;;;;;;6.07;3.55;;;;;;;;;;7392628;19;20011;-75
2021/12/26 06:48:41;;;;;;;6.22;3.80;;;;;;;;;;7390305;19;20006;-75
2021/12/26 06:51:07;;;;;;;4.57;3.15;;;;;;;;;;7393788;19;19998;-76
2021/12/26 06:53:32;;;;;;;5.20;3.53;;;;;;;;;;7393047;19;20036;-75
2021/12/26 06:55:58;;;;;;;5.07;3.53;;;;;;;;;;7392153;19;20039;-75
2021/12/26 06:58:23;;;;;;;5.38;3.70;;;;;;;;;;7392893;19;20540;-76
2021/12/26 07:00:48;;;;;;;5.65;3.65;;;;;;;;;;7393845;19;20103;-75
2021/12/26 07:03:14;;;;;;;5.78;4.00;;;;;;;;;;7392965;19;20045;-76
2021/12/26 07:05:39;;;;;;;6.93;4.47;;;;;;;;;;7392404;19;19999;-75
2021/12/26 07:08:05;;;;;;;6.05;4.28;;;;;;;;;;7392085;19;20084;-76
2021/12/26 07:10:31;;;;;;;5.50;4.05;;;;;;;;;;7392783;19;20001;-75
2021/12/26 07:12:56;;;;;;;6.82;4.30;;;;;;;;;;7392954;19;20104;-76
2021/12/26 07:15:21;;;;;;;5.82;3.97;;;;;;;;;;7392651;19;20011;-75
2021/12/26 07:17:47;;;;;;;4.85;3.60;;;;;;;;;;7392881;19;20017;-76
2021/12/26 07:20:16;;;;;;;8.30;4.55;;;;;;;;;;7391995;19;19995;-76
2021/12/26 07:22:43;;;;;;;10.52;5.43;;;;;;;;;;7393026;19;19994;-75
2021/12/26 07:25:08;;;;;;;6.22;3.88;;;;;;;;;;7391443;19;20423;-76
2021/12/26 07:27:34;;;;;;;5.40;4.15;;;;;;;;;;7392312;19;20467;-75
2021/12/26 07:30:02;;;;;;;5.65;4.10;;;;;;;;;;7391670;19;20003;-76
2021/12/26 07:32:28;;;;;;;6.53;4.38;;;;;;;;;;7396224;19;20347;-75
2021/12/26 07:34:54;;;;;;;5.57;4.13;;;;;;;;;;7392340;19;20017;-75
2021/12/26 07:37:20;;;;;;;5.32;4.00;;;;;;;;;;7389978;19;19999;-76
2021/12/26 07:39:45;;;;;;;5.75;4.20;;;;;;;;;;7390680;19;20006;-75
2021/12/26 07:42:10;;;;;;;8.52;4.57;;;;;;;;;;7391883;19;20019;-75
2021/12/26 07:44:36;;;;;;;6.15;4.30;;;;;;;;;;7392526;19;19991;-76
2021/12/26 07:47:02;;;;;;;5.60;3.65;;;;;;;;;;7390405;19;20005;-76
2021/12/26 07:49:28;;;;;;;7.68;4.80;;;;;;;;;;7391653;19;19999;-76
2021/12/26 07:51:53;;;;;;;6.78;4.75;;;;;;;;;;7391643;19;19995;-75
2021/12/26 07:54:22;;;;;;;5.97;4.32;;;;;;;;;;7390657;19;20003;-76
2021/12/26 07:56:48;;;;;;;6.10;4.47;;;;;;;;;;7389840;19;20494;-76
2021/12/26 07:59:13;;;;;;;10.95;6.75;;;;;;;;;;7389649;19;20002;-75
2021/12/26 08:01:39;;;;;;;7.95;4.70;;;;;;;;;;7391385;19;20062;-75
2021/12/26 08:04:05;;;;;;;5.68;3.90;;;;;;;;;;7390931;19;20465;-75
2021/12/26 08:06:31;;;;;;;6.55;4.68;;;;;;;;;;7390116;19;20002;-75
2021/12/26 08:08:57;;;;;;;10.80;5.72;;;;;;;;;;7389807;19;20015;-75
2021/12/26 08:11:23;;;;;;;7.00;4.93;;;;;;;;;;7394208;19;19994;-75
2021/12/26 08:13:48;;;;;;;5.88;4.55;;;;;;;;;;7391201;19;19995;-76
2021/12/26 08:16:14;;;;;;;7.10;5.18;;;;;;;;;;7389664;19;20478;-76
2021/12/26 08:18:40;;;;;;;8.18;5.53;;;;;;;;;;7389971;19;20014;-76
2021/12/26 08:21:05;;;;;;;20.02;11.13;;;;;;;;;;7393009;19;20390;-75
2021/12/26 08:23:30;;;;;;;8.10;5.45;;;;;;;;;;7392400;19;20482;-76
2021/12/26 08:25:56;;;;;;;12.43;7.05;;;;;;;;;;7390031;19;19991;-76
2021/12/26 08:28:22;;;;;;;8.23;4.90;;;;;;;;;;7389816;19;20002;-76
2021/12/26 08:30:48;;;;;;;5.43;4.07;;;;;;;;;;7390410;19;19999;-76
2021/12/26 08:33:14;;;;;;;7.07;4.93;;;;;;;;;;7390245;19;20006;-75
2021/12/26 08:35:41;;;;;;;6.78;4.80;;;;;;;;;;7389859;19;20007;-76
2021/12/26 08:38:07;;;;;;;5.90;4.35;;;;;;;;;;7389286;19;20001;-76
2021/12/26 08:40:33;;;;;;;5.57;4.07;;;;;;;;;;7390010;19;20069;-76
2021/12/26 08:42:58;;;;;;;6.28;4.00;;;;;;;;;;7390027;19;20007;-76
2021/12/26 08:45:25;;;;;;;5.53;4.10;;;;;;;;;;7388331;19;20010;-76
2021/12/26 08:47:51;;;;;;;5.15;3.85;;;;;;;;;;7390019;19;20054;-76
2021/12/26 08:50:17;;;;;;;5.72;4.18;;;;;;;;;;7389633;19;20009;-76
2021/12/26 08:52:43;;;;;;;5.28;4.40;;;;;;;;;;7390054;19;19999;-76
2021/12/26 08:55:09;;;;;;;4.30;3.75;;;;;;;;;;7388531;19;20339;-76
2021/12/26 08:57:34;;;;;;;6.15;4.32;;;;;;;;;;7389560;19;20367;-76
2021/12/26 09:00:03;;;;;;;5.22;3.60;;;;;;;;;;7389160;19;19998;-76
2021/12/26 09:02:28;;;;;;;6.07;4.10;;;;;;;;;;7389390;19;20012;-75
2021/12/26 09:04:53;;;;;;;5.60;4.00;;;;;;;;;;7389562;19;19994;-76
2021/12/26 09:07:19;;;;;;;5.28;3.75;;;;;;;;;;7389191;19;20002;-75
2021/12/26 09:09:46;;;;;;;6.43;4.65;;;;;;;;;;7388393;19;20342;-75
2021/12/26 09:12:12;;;;;;;8.07;4.65;;;;;;;;;;7395348;19;20001;-75
2021/12/26 09:14:38;;;;;;;10.73;5.75;;;;;;;;;;7401026;19;20489;-75
2021/12/26 09:17:04;;;;;;;6.43;4.20;;;;;;;;;;7393929;19;20006;-75
2021/12/26 09:19:30;;;;;;;5.75;4.00;;;;;;;;;;7396951;19;20034;-76
2021/12/26 09:21:57;;;;;;;7.07;4.15;;;;;;;;;;7394797;19;20442;-76
2021/12/26 09:24:22;;;;;;;5.60;3.90;;;;;;;;;;7395707;19;20032;-76
2021/12/26 09:26:48;;;;;;;5.38;4.18;;;;;;;;;;7394392;19;19995;-75
2021/12/26 09:29:13;;;;;;;5.35;4.13;;;;;;;;;;7395838;19;20003;-75
2021/12/26 09:31:38;;;;;;;4.70;3.83;;;;;;;;;;7396676;19;20034;-75
2021/12/26 09:34:04;;;;;;;5.57;4.30;;;;;;;;;;7396455;19;19995;-75
2021/12/26 09:36:29;;;;;;;7.32;4.00;;;;;;;;;;7393991;19;19999;-75
2021/12/26 09:38:54;;;;;;;7.90;5.22;;;;;;;;;;7395674;19;20006;-75
2021/12/26 09:41:20;;;;;;;8.13;5.03;;;;;;;;;;7396244;19;20050;-76
2021/12/26 09:43:46;;;;;;;7.95;5.07;;;;;;;;;;7394437;19;20077;-76
2021/12/26 09:46:11;;;;;;;5.80;4.60;;;;;;;;;;7394503;19;20009;-75
2021/12/26 09:48:37;;;;;;;6.05;4.32;;;;;;;;;;7394763;19;20062;-75
2021/12/26 09:51:02;;;;;;;6.80;4.30;;;;;;;;;;7397000;19;20037;-75
2021/12/26 09:53:28;;;;;;;6.93;4.22;;;;;;;;;;7394958;19;20066;-78
2021/12/26 09:55:53;;;;;;;6.78;4.30;;;;;;;;;;7394523;19;20421;-75
2021/12/26 09:58:19;;;;;;;5.93;4.13;;;;;;;;;;7394997;19;20002;-75
2021/12/26 10:00:45;;;;;;;7.03;4.65;;;;;;;;;;7398898;19;19998;-75
2021/12/26 10:03:24;;;;;;;6.45;4.57;;;;;;;;;;7398871;19;20467;-75
2021/12/26 10:06:28;;;;;;;9.68;5.00;;;;;;;;;;7398125;19;20081;-75
2021/12/26 10:08:55;;;;;;;6.60;4.60;;;;;;;;;;7391397;19;19995;-75
2021/12/26 10:11:24;;;;;;;6.97;4.30;;;;;;;;;;7395062;19;20023;-76
2021/12/26 10:13:57;;;;;;;9.75;6.03;;;;;;;;;;7394693;19;19999;-75
2021/12/26 10:16:27;;;;;;;9.68;5.72;;;;;;;;;;7393576;19;20007;-76
2021/12/26 10:18:54;;;;;;;5.43;4.10;;;;;;;;;;7394076;19;19994;-75
2021/12/26 10:21:30;;;;;;;9.90;4.70;;;;;;;;;;7395003;19;20381;-75
2021/12/26 10:23:59;;;;;;;7.00;4.72;;;;;;;;;;7393268;19;20003;-76
2021/12/26 10:26:27;;;;;;;7.10;4.88;;;;;;;;;;7392693;19;20023;-76
2021/12/26 10:29:06;;;;;;;9.93;4.95;;;;;;;;;;7394154;19;20006;-76
2021/12/26 10:31:31;;;;;;;6.63;4.50;;;;;;;;;;7395326;19;20006;-75
2021/12/26 10:33:57;;;;;;;7.30;4.50;;;;;;;;;;7394183;19;20376;-76
2021/12/26 10:36:23;;;;;;;4.97;3.88;;;;;;;;;;7392836;19;20013;-75
2021/12/26 10:39:12;;;;;;;10.30;4.80;;;;;;;;;;7392674;19;19999;-75
2021/12/26 10:41:47;;;;;;;6.80;4.28;;;;;;;;;;7393944;19;20008;-75
2021/12/26 10:44:27;;;;;;;7.03;5.05;;;;;;;;;;7393867;19;20397;-76
2021/12/26 10:46:57;;;;;;;19.05;9.55;;;;;;;;;;7392287;19;20003;-75
2021/12/26 10:49:34;;;;;;;7.65;5.18;;;;;;;;;;7393579;19;20014;-75
2021/12/26 10:52:01;;;;;;;6.32;4.28;;;;;;;;;;7397048;19;19995;-75
2021/12/26 10:54:31;;;;;;;7.93;5.10;;;;;;;;;;7393299;19;20022;-75
2021/12/26 10:57:19;;;;;;;7.90;4.78;;;;;;;;;;7391553;19;19999;-75
2021/12/26 10:59:47;;;;;;;6.93;4.15;;;;;;;;;;7392806;19;20028;-75
2021/12/26 11:02:25;;;;;;;6.72;4.32;;;;;;;;;;7393599;19;20364;-75
2021/12/26 11:04:55;;;;;;;6.40;4.65;;;;;;;;;;7393656;19;20010;-75
2021/12/26 11:07:20;;;;;;;6.10;4.70;;;;;;;;;;7393218;19;20018;-75
2021/12/26 11:09:59;;;;;;;7.10;4.68;;;;;;;;;;7392124;19;20022;-75
2021/12/26 11:12:35;;;;;;;8.27;4.82;;;;;;;;;;7393415;19;20095;-75
2021/12/26 11:15:01;;;;;;;7.10;4.90;;;;;;;;;;7392745;19;19999;-76
2021/12/26 11:17:29;;;;;;;6.80;5.05;;;;;;;;;;7390508;19;20021;-75
2021/12/26 11:19:54;;;;;;;7.18;4.75;;;;;;;;;;7393301;19;19998;-76
2021/12/26 11:22:20;;;;;;;8.85;5.88;;;;;;;;;;7392700;19;20360;-76
2021/12/26 11:24:45;;;;;;;14.43;8.13;;;;;;;;;;7391936;19;19995;-75
2021/12/26 11:27:11;;;;;;;17.70;7.45;;;;;;;;;;7390610;19;20001;-75
2021/12/26 11:29:36;;;;;;;7.45;5.07;;;;;;;;;;7391899;19;20111;-75
2021/12/26 11:32:02;;;;;;;7.60;4.85;;;;;;;;;;7392655;19;20082;-75
2021/12/26 11:34:30;;;;;;;6.13;4.63;;;;;;;;;;7390786;19;20018;-76
2021/12/26 11:36:57;;;;;;;8.65;5.10;;;;;;;;;;7390293;19;20007;-75
2021/12/26 11:39:22;;;;;;;11.55;4.60;;;;;;;;;;7392367;19;20006;-76
2021/12/26 11:42:14;;;;;;;10.50;6.85;;;;;;;;;;7396717;19;19995;-76
2021/12/26 11:44:54;;;;;;;8.25;5.07;;;;;;;;;;7389805;19;20073;-75
2021/12/26 11:47:40;;;;;;;8.55;4.55;;;;;;;;;;7391924;19;20002;-76
2021/12/26 11:50:27;;;;;;;7.28;4.95;;;;;;;;;;7391059;19;20019;-75
2021/12/26 11:53:31;;;;;;;6.30;4.82;;;;;;;;;;7391757;19;20010;-75
2021/12/26 11:56:21;;;;;;;8.05;4.40;;;;;;;;;;7390688;19;20497;-75
2021/12/26 11:59:05;;;;;;;8.13;5.22;;;;;;;;;;7391226;19;20106;-75
2021/12/26 12:01:32;;;;;;;6.55;5.13;;;;;;;;;;7391572;19;20343;-74
2021/12/26 12:04:11;;;;;;;8.40;5.75;;;;;;;;;;7391153;19;20022;-79
2021/12/26 12:06:36;;;;;;;8.25;5.40;;;;;;;;;;7390593;19;20044;-77
2021/12/26 12:09:22;;;;;;;8.02;5.13;;;;;;;;;;7390038;19;20450;-76
2021/12/26 12:11:58;;;;;;;8.85;5.45;;;;;;;;;;7391551;19;19998;-75
2021/12/26 12:14:54;;;;;;;9.23;6.03;;;;;;;;;;7390945;19;20023;-76
2021/12/26 12:17:24;;;;;;;;;;;;;;;;;;7389436;19;20466;-76
2021/12/26 12:20:14;;;;;;;14.27;6.97;;;;;;;;;;7389992;19;20066;-78
2021/12/26 12:23:09;;;;;;;9.77;5.80;;;;;;;;;;7391146;19;20019;-78
2021/12/26 12:25:34;;;;;;;7.82;5.63;;;;;;;;;;7387826;19;20007;-78
2021/12/26 12:28:10;;;;;;;10.88;7.25;;;;;;;;;;7390215;19;20012;-76
2021/12/26 12:30:43;;;;;;;9.77;6.18;;;;;;;;;;7393370;19;19999;-75
2021/12/26 12:33:13;;;;;;;11.55;6.70;;;;;;;;;;7394324;19;20006;-75
2021/12/26 12:35:52;;;;;;;10.98;7.07;;;;;;;;;;7389366;19;20446;-76
2021/12/26 12:38:25;;;;;;;8.93;6.25;;;;;;;;;;7389114;19;20926;-75
2021/12/26 12:40:50;;;;;;;10.82;6.15;;;;;;;;;;7390272;19;20069;-76
2021/12/26 12:43:19;;;;;;;8.27;5.82;;;;;;;;;;7390004;19;20006;-75
2021/12/26 12:45:58;;;;;;;9.45;6.38;;;;;;;;;;7389163;19;20007;-76
2021/12/26 12:48:26;;;;;;;11.15;6.70;;;;;;;;;;7390058;19;20006;-75
2021/12/26 12:50:55;;;;;;;10.10;7.05;;;;;;;;;;7389905;19;20462;-75
2021/12/26 12:53:41;;;;;;;11.27;7.40;;;;;;;;;;7389332;19;20006;-78
2021/12/26 12:56:09;;;;;;;8.02;6.07;;;;;;;;;;7388894;19;20007;-75
2021/12/26 12:58:36;;;;;;;10.43;6.85;;;;;;;;;;7388940;19;20007;-76
2021/12/26 13:01:05;;;;;;;12.73;7.15;;;;;;;;;;7389686;19;20074;-76
2021/12/26 13:03:33;;;;;;;12.57;6.97;;;;;;;;;;7389376;19;20009;-75
2021/12/26 13:06:07;;;;;;;11.10;6.53;;;;;;;;;;7388786;19;20014;-78
2021/12/26 13:08:33;;;;;;;9.63;6.60;;;;;;;;;;7388343;19;20058;-77
2021/12/26 13:11:01;;;;;;;8.85;5.97;;;;;;;;;;7389287;19;20005;-77
2021/12/26 13:13:26;;;;;;;9.98;6.63;;;;;;;;;;7389602;19;20477;-77
2021/12/26 13:16:18;;;;;;;11.95;7.22;;;;;;;;;;7388916;19;20012;-77
2021/12/26 13:18:43;;;;;;;10.77;7.05;;;;;;;;;;7387886;19;20352;-78
2021/12/26 13:21:10;;;;;;;17.13;8.63;;;;;;;;;;7392379;19;20002;-77
2021/12/26 13:23:39;;;;;;;9.77;6.13;;;;;;;;;;7392794;19;20127;-77
2021/12/26 13:26:07;;;;;;;11.45;6.60;;;;;;;;;;7388386;19;20003;-77
2021/12/26 13:28:34;;;;;;;12.25;7.10;;;;;;;;;;7388223;19;20393;-77
2021/12/26 13:31:18;;;;;;;14.70;8.32;;;;;;;;;;7388889;19;20164;-78
2021/12/26 13:33:45;;;;;;;13.35;8.10;;;;;;;;;;7387949;19;19995;-78
2021/12/26 13:36:21;;;;;;;14.35;8.25;;;;;;;;;;7387456;19;20336;-77
2021/12/26 13:38:52;;;;;;;11.30;6.93;;;;;;;;;;7387910;19;20013;-77
2021/12/26 13:41:20;;;;;;;11.43;7.35;;;;;;;;;;7388946;19;20009;-78
2021/12/26 13:43:47;;;;;;;15.30;8.13;;;;;;;;;;7388481;19;20415;-77
2021/12/26 13:46:20;;;;;;;14.43;7.22;;;;;;;;;;7387333;19;20024;-78
2021/12/26 13:48:52;;;;;;;11.05;7.55;;;;;;;;;;7387509;19;20490;-78
2021/12/26 13:51:29;;;;;;;13.88;8.45;;;;;;;;;;7388655;19;20099;-78
2021/12/26 13:53:54;;;;;;;14.90;7.82;;;;;;;;;;7386128;19;20009;-77
2021/12/26 13:56:21;;;;;;;11.57;7.10;;;;;;;;;;7387162;19;20074;-78
2021/12/26 13:58:47;;;;;;;10.75;7.50;;;;;;;;;;7393851;19;20069;-75
2021/12/26 14:01:13;;;;;;;11.82;6.72;;;;;;;;;;7395875;19;20609;-77
2021/12/26 14:03:45;;;;;;;11.52;7.18;;;;;;;;;;7395102;19;20010;-78
2021/12/26 14:06:10;;;;;;;10.80;6.55;;;;;;;;;;7393978;19;20006;-78
2021/12/26 14:08:35;;;;;;;12.40;6.80;;;;;;;;;;7392403;19;20014;-77
2021/12/26 14:11:04;;;;;;;11.18;6.68;;;;;;;;;;7398292;19;20002;-77
2021/12/26 14:13:31;;;;;;;9.88;5.63;;;;;;;;;;7399034;19;20019;-77
2021/12/26 14:15:59;;;;;;;9.48;6.20;;;;;;;;;;7394007;19;19999;-78
2021/12/26 14:18:28;;;;;;;10.13;6.20;;;;;;;;;;7396733;19;19998;-77
2021/12/26 14:20:59;;;;;;;12.65;6.50;;;;;;;;;;7395052;19;20006;-77
2021/12/26 14:23:28;;;;;;;9.15;5.95;;;;;;;;;;7394047;19;20016;-77
2021/12/26 14:25:59;;;;;;;11.68;5.95;;;;;;;;;;7393484;19;19995;-77
2021/12/26 14:28:26;;;;;;;10.85;6.43;;;;;;;;;;7394034;19;20100;-76
2021/12/26 14:30:57;;;;;;;9.13;6.40;;;;;;;;;;7394487;19;19995;-77
2021/12/26 14:33:30;;;;;;;10.07;6.35;;;;;;;;;;7394282;19;20443;-77
2021/12/26 14:36:05;;;;;;;11.00;6.35;;;;;;;;;;7393283;19;20454;-77
2021/12/26 14:38:32;;;;;;;10.30;6.18;;;;;;;;;;7392792;19;20082;-77
2021/12/26 14:41:04;;;;;;;11.43;6.28;;;;;;;;;;7394081;19;20364;-76
2021/12/26 14:43:30;;;;;;;11.00;5.90;;;;;;;;;;7393975;19;20028;-77
2021/12/26 14:45:59;;;;;;;11.50;7.07;;;;;;;;;;7392826;19;20038;-77
2021/12/26 14:48:30;;;;;;;7.03;5.05;;;;;;;;;;7393259;19;19998;-77